sensor_id;sensor_type;location;lat;lon;timestamp;P1;durP1;ratioP1;P2;durP2;ratioP2
40254;SDS011;25973;52.368;4.940;2023-06-22T00:00:50;17.58;;;7.55;;
40254;SDS011;25973;52.368;4.940;2023-06-22T00:03:17;18.88;;;8.23;;
40254;SDS011;25973;52.368;4.940;2023-06-22T00:05:44;13.88;;;7.97;;
40254;SDS011;25973;52.368;4.940;2023-06-22T00:08:10;15.52;;;7.97;;
40254;SDS011;25973;52.368;4.940;2023-06-22T00:10:36;17.08;;;8.18;;
40254;SDS011;25973;52.368;4.940;2023-06-22T00:13:02;19.48;;;9.00;;
40254;SDS011;25973;52.368;4.940;2023-06-22T00:15:28;14.15;;;7.90;;
40254;SDS011;25973;52.368;4.940;2023-06-22T00:17:53;18.85;;;8.68;;
40254;SDS011;25973;52.368;4.940;2023-06-22T00:20:19;19.05;;;9.68;;
40254;SDS011;25973;52.368;4.940;2023-06-22T00:22:44;16.67;;;9.00;;
40254;SDS011;25973;52.368;4.940;2023-06-22T00:25:11;26.33;;;9.48;;
40254;SDS011;25973;52.368;4.940;2023-06-22T00:27:36;14.95;;;8.45;;
40254;SDS011;25973;52.368;4.940;2023-06-22T00:30:02;16.92;;;8.85;;
40254;SDS011;25973;52.368;4.940;2023-06-22T00:32:28;22.08;;;9.63;;
40254;SDS011;25973;52.368;4.940;2023-06-22T00:34:54;16.48;;;8.10;;
40254;SDS011;25973;52.368;4.940;2023-06-22T00:37:19;24.73;;;9.25;;
40254;SDS011;25973;52.368;4.940;2023-06-22T00:39:50;18.73;;;8.95;;
40254;SDS011;25973;52.368;4.940;2023-06-22T00:42:16;18.75;;;8.35;;
40254;SDS011;25973;52.368;4.940;2023-06-22T00:44:42;19.60;;;8.90;;
40254;SDS011;25973;52.368;4.940;2023-06-22T00:47:07;20.55;;;8.90;;
40254;SDS011;25973;52.368;4.940;2023-06-22T00:49:33;16.50;;;8.60;;
40254;SDS011;25973;52.368;4.940;2023-06-22T00:51:58;16.77;;;8.93;;
40254;SDS011;25973;52.368;4.940;2023-06-22T00:54:24;20.75;;;9.52;;
40254;SDS011;25973;52.368;4.940;2023-06-22T00:56:53;25.80;;;10.80;;
40254;SDS011;25973;52.368;4.940;2023-06-22T00:59:21;19.27;;;9.35;;
40254;SDS011;25973;52.368;4.940;2023-06-22T01:01:47;17.00;;;8.95;;
40254;SDS011;25973;52.368;4.940;2023-06-22T01:04:13;22.35;;;9.93;;
40254;SDS011;25973;52.368;4.940;2023-06-22T01:06:41;18.75;;;11.10;;
40254;SDS011;25973;52.368;4.940;2023-06-22T01:09:20;19.33;;;10.77;;
40254;SDS011;25973;52.368;4.940;2023-06-22T01:11:57;20.55;;;10.80;;
40254;SDS011;25973;52.368;4.940;2023-06-22T01:14:34;19.05;;;10.95;;
40254;SDS011;25973;52.368;4.940;2023-06-22T01:17:10;22.65;;;10.07;;
40254;SDS011;25973;52.368;4.940;2023-06-22T01:22:06;21.52;;;10.95;;
40254;SDS011;25973;52.368;4.940;2023-06-22T01:27:56;23.98;;;11.95;;
40254;SDS011;25973;52.368;4.940;2023-06-22T01:30:30;19.67;;;11.05;;
40254;SDS011;25973;52.368;4.940;2023-06-22T01:32:59;29.13;;;13.10;;
40254;SDS011;25973;52.368;4.940;2023-06-22T01:35:26;21.67;;;11.73;;
40254;SDS011;25973;52.368;4.940;2023-06-22T01:37:52;22.13;;;11.55;;
40254;SDS011;25973;52.368;4.940;2023-06-22T01:40:18;22.17;;;10.93;;
40254;SDS011;25973;52.368;4.940;2023-06-22T01:42:45;24.30;;;11.55;;
40254;SDS011;25973;52.368;4.940;2023-06-22T01:45:11;23.92;;;12.00;;
40254;SDS011;25973;52.368;4.940;2023-06-22T01:47:38;21.45;;;10.95;;
40254;SDS011;25973;52.368;4.940;2023-06-22T01:50:04;22.42;;;10.57;;
40254;SDS011;25973;52.368;4.940;2023-06-22T01:52:30;18.83;;;11.45;;
40254;SDS011;25973;52.368;4.940;2023-06-22T01:54:58;21.13;;;11.55;;
40254;SDS011;25973;52.368;4.940;2023-06-22T01:57:25;23.42;;;10.63;;
40254;SDS011;25973;52.368;4.940;2023-06-22T02:00:01;17.60;;;10.02;;
40254;SDS011;25973;52.368;4.940;2023-06-22T02:02:29;21.05;;;10.18;;
40254;SDS011;25973;52.368;4.940;2023-06-22T02:05:04;18.70;;;11.07;;
40254;SDS011;25973;52.368;4.940;2023-06-22T02:07:32;18.58;;;9.52;;
40254;SDS011;25973;52.368;4.940;2023-06-22T02:10:04;18.30;;;10.02;;
40254;SDS011;25973;52.368;4.940;2023-06-22T02:12:32;19.52;;;9.48;;
40254;SDS011;25973;52.368;4.940;2023-06-22T02:15:00;17.80;;;10.13;;
40254;SDS011;25973;52.368;4.940;2023-06-22T02:17:26;21.00;;;10.63;;
40254;SDS011;25973;52.368;4.940;2023-06-22T02:19:52;15.63;;;9.60;;
40254;SDS011;25973;52.368;4.940;2023-06-22T02:22:17;16.27;;;9.50;;
40254;SDS011;25973;52.368;4.940;2023-06-22T02:24:43;23.30;;;9.48;;
40254;SDS011;25973;52.368;4.940;2023-06-22T02:27:08;17.95;;;10.27;;
40254;SDS011;25973;52.368;4.940;2023-06-22T02:29:35;21.77;;;9.95;;
40254;SDS011;25973;52.368;4.940;2023-06-22T02:32:01;23.15;;;10.73;;
40254;SDS011;25973;52.368;4.940;2023-06-22T02:34:27;17.88;;;10.57;;
40254;SDS011;25973;52.368;4.940;2023-06-22T02:36:53;18.42;;;12.00;;
40254;SDS011;25973;52.368;4.940;2023-06-22T02:39:22;25.05;;;12.02;;
40254;SDS011;25973;52.368;4.940;2023-06-22T02:41:52;25.90;;;11.40;;
40254;SDS011;25973;52.368;4.940;2023-06-22T02:44:19;29.13;;;11.80;;
40254;SDS011;25973;52.368;4.940;2023-06-22T02:46:45;24.05;;;11.80;;
40254;SDS011;25973;52.368;4.940;2023-06-22T02:49:12;23.63;;;11.18;;
40254;SDS011;25973;52.368;4.940;2023-06-22T02:51:38;22.63;;;11.30;;
40254;SDS011;25973;52.368;4.940;2023-06-22T02:54:10;27.65;;;12.77;;
40254;SDS011;25973;52.368;4.940;2023-06-22T02:56:36;19.77;;;11.32;;
40254;SDS011;25973;52.368;4.940;2023-06-22T02:59:02;20.67;;;11.77;;
40254;SDS011;25973;52.368;4.940;2023-06-22T03:01:28;23.48;;;11.57;;
40254;SDS011;25973;52.368;4.940;2023-06-22T03:03:55;22.55;;;12.50;;
40254;SDS011;25973;52.368;4.940;2023-06-22T03:06:24;28.50;;;13.15;;
40254;SDS011;25973;52.368;4.940;2023-06-22T03:08:57;21.42;;;12.52;;
40254;SDS011;25973;52.368;4.940;2023-06-22T03:11:28;33.95;;;13.48;;
40254;SDS011;25973;52.368;4.940;2023-06-22T03:13:54;26.88;;;13.70;;
40254;SDS011;25973;52.368;4.940;2023-06-22T03:16:20;25.08;;;13.48;;
40254;SDS011;25973;52.368;4.940;2023-06-22T03:18:46;25.80;;;12.77;;
40254;SDS011;25973;52.368;4.940;2023-06-22T03:21:11;27.25;;;13.95;;
40254;SDS011;25973;52.368;4.940;2023-06-22T03:23:37;24.58;;;13.30;;
40254;SDS011;25973;52.368;4.940;2023-06-22T03:26:02;24.35;;;14.15;;
40254;SDS011;25973;52.368;4.940;2023-06-22T03:28:29;21.88;;;12.48;;
40254;SDS011;25973;52.368;4.940;2023-06-22T03:30:56;28.38;;;13.30;;
40254;SDS011;25973;52.368;4.940;2023-06-22T03:33:22;27.63;;;12.88;;
40254;SDS011;25973;52.368;4.940;2023-06-22T03:35:48;23.73;;;11.88;;
40254;SDS011;25973;52.368;4.940;2023-06-22T03:38:15;23.80;;;12.70;;
40254;SDS011;25973;52.368;4.940;2023-06-22T03:40:41;27.77;;;13.27;;
40254;SDS011;25973;52.368;4.940;2023-06-22T03:43:06;26.08;;;13.40;;
40254;SDS011;25973;52.368;4.940;2023-06-22T03:45:32;23.92;;;12.38;;
40254;SDS011;25973;52.368;4.940;2023-06-22T03:47:58;24.30;;;12.25;;
40254;SDS011;25973;52.368;4.940;2023-06-22T03:50:23;23.00;;;11.68;;
40254;SDS011;25973;52.368;4.940;2023-06-22T03:52:52;26.98;;;12.43;;
40254;SDS011;25973;52.368;4.940;2023-06-22T03:55:19;22.30;;;11.80;;
40254;SDS011;25973;52.368;4.940;2023-06-22T03:57:44;22.42;;;12.43;;
40254;SDS011;25973;52.368;4.940;2023-06-22T04:00:10;26.88;;;12.38;;
40254;SDS011;25973;52.368;4.940;2023-06-22T04:02:36;20.90;;;12.35;;
40254;SDS011;25973;52.368;4.940;2023-06-22T04:05:02;20.95;;;12.20;;
40254;SDS011;25973;52.368;4.940;2023-06-22T04:07:28;26.83;;;12.07;;
40254;SDS011;25973;52.368;4.940;2023-06-22T04:09:53;22.67;;;12.50;;
40254;SDS011;25973;52.368;4.940;2023-06-22T04:12:19;28.70;;;12.63;;
40254;SDS011;25973;52.368;4.940;2023-06-22T04:14:44;26.45;;;12.15;;
40254;SDS011;25973;52.368;4.940;2023-06-22T04:17:10;28.33;;;13.48;;
40254;SDS011;25973;52.368;4.940;2023-06-22T04:19:40;23.42;;;11.98;;
40254;SDS011;25973;52.368;4.940;2023-06-22T04:22:05;24.90;;;11.85;;
40254;SDS011;25973;52.368;4.940;2023-06-22T04:24:32;21.65;;;11.90;;
40254;SDS011;25973;52.368;4.940;2023-06-22T04:26:58;22.70;;;11.52;;
40254;SDS011;25973;52.368;4.940;2023-06-22T04:29:27;23.30;;;11.57;;
40254;SDS011;25973;52.368;4.940;2023-06-22T04:31:55;21.63;;;11.27;;
40254;SDS011;25973;52.368;4.940;2023-06-22T04:34:23;20.73;;;12.27;;
40254;SDS011;25973;52.368;4.940;2023-06-22T04:36:51;22.13;;;11.52;;
40254;SDS011;25973;52.368;4.940;2023-06-22T04:39:17;20.23;;;11.10;;
40254;SDS011;25973;52.368;4.940;2023-06-22T04:41:44;19.60;;;10.93;;
40254;SDS011;25973;52.368;4.940;2023-06-22T04:44:10;20.38;;;10.90;;
40254;SDS011;25973;52.368;4.940;2023-06-22T04:46:59;25.80;;;10.60;;
40254;SDS011;25973;52.368;4.940;2023-06-22T04:49:33;19.60;;;11.07;;
40254;SDS011;25973;52.368;4.940;2023-06-22T04:52:02;22.55;;;11.05;;
40254;SDS011;25973;52.368;4.940;2023-06-22T04:54:29;25.17;;;11.50;;
40254;SDS011;25973;52.368;4.940;2023-06-22T04:56:57;18.42;;;10.90;;
40254;SDS011;25973;52.368;4.940;2023-06-22T04:59:27;25.33;;;11.77;;
40254;SDS011;25973;52.368;4.940;2023-06-22T05:01:58;19.55;;;11.77;;
40254;SDS011;25973;52.368;4.940;2023-06-22T05:04:28;23.85;;;11.73;;
40254;SDS011;25973;52.368;4.940;2023-06-22T05:06:58;20.98;;;10.88;;
40254;SDS011;25973;52.368;4.940;2023-06-22T05:09:25;20.67;;;11.20;;
40254;SDS011;25973;52.368;4.940;2023-06-22T05:11:51;19.08;;;10.95;;
40254;SDS011;25973;52.368;4.940;2023-06-22T05:14:17;20.52;;;10.50;;
40254;SDS011;25973;52.368;4.940;2023-06-22T05:16:43;25.20;;;9.80;;
40254;SDS011;25973;52.368;4.940;2023-06-22T05:19:09;20.50;;;10.52;;
40254;SDS011;25973;52.368;4.940;2023-06-22T05:21:34;18.48;;;10.32;;
40254;SDS011;25973;52.368;4.940;2023-06-22T05:24:00;23.95;;;10.05;;
40254;SDS011;25973;52.368;4.940;2023-06-22T05:26:27;25.10;;;12.98;;
40254;SDS011;25973;52.368;4.940;2023-06-22T05:28:57;27.42;;;14.20;;
40254;SDS011;25973;52.368;4.940;2023-06-22T05:31:24;24.38;;;12.43;;
40254;SDS011;25973;52.368;4.940;2023-06-22T05:33:51;27.27;;;14.45;;
40254;SDS011;25973;52.368;4.940;2023-06-22T05:36:17;23.50;;;13.02;;
40254;SDS011;25973;52.368;4.940;2023-06-22T05:38:45;35.45;;;15.40;;
40254;SDS011;25973;52.368;4.940;2023-06-22T05:41:11;29.67;;;15.30;;
40254;SDS011;25973;52.368;4.940;2023-06-22T05:43:37;28.25;;;15.85;;
40254;SDS011;25973;52.368;4.940;2023-06-22T05:46:03;28.85;;;14.63;;
40254;SDS011;25973;52.368;4.940;2023-06-22T05:48:29;26.73;;;15.63;;
40254;SDS011;25973;52.368;4.940;2023-06-22T05:50:55;29.42;;;15.52;;
40254;SDS011;25973;52.368;4.940;2023-06-22T05:53:20;29.02;;;14.98;;
40254;SDS011;25973;52.368;4.940;2023-06-22T05:55:46;33.20;;;16.67;;
40254;SDS011;25973;52.368;4.940;2023-06-22T05:58:12;33.20;;;15.43;;
40254;SDS011;25973;52.368;4.940;2023-06-22T06:00:41;33.13;;;16.83;;
40254;SDS011;25973;52.368;4.940;2023-06-22T06:03:08;33.22;;;17.38;;
40254;SDS011;25973;52.368;4.940;2023-06-22T06:05:34;30.65;;;17.60;;
40254;SDS011;25973;52.368;4.940;2023-06-22T06:08:01;31.25;;;16.67;;
40254;SDS011;25973;52.368;4.940;2023-06-22T06:10:28;32.13;;;16.88;;
40254;SDS011;25973;52.368;4.940;2023-06-22T06:12:54;30.02;;;16.17;;
40254;SDS011;25973;52.368;4.940;2023-06-22T06:15:20;33.45;;;14.35;;
40254;SDS011;25973;52.368;4.940;2023-06-22T06:17:47;42.08;;;16.90;;
40254;SDS011;25973;52.368;4.940;2023-06-22T06:20:14;30.33;;;16.52;;
40254;SDS011;25973;52.368;4.940;2023-06-22T06:22:40;48.78;;;20.77;;
40254;SDS011;25973;52.368;4.940;2023-06-22T06:25:07;43.78;;;16.40;;
40254;SDS011;25973;52.368;4.940;2023-06-22T06:27:33;58.92;;;19.15;;
40254;SDS011;25973;52.368;4.940;2023-06-22T06:29:59;39.15;;;17.02;;
40254;SDS011;25973;52.368;4.940;2023-06-22T06:32:24;36.00;;;15.68;;
40254;SDS011;25973;52.368;4.940;2023-06-22T06:34:50;28.23;;;16.05;;
40254;SDS011;25973;52.368;4.940;2023-06-22T06:37:16;38.33;;;15.95;;
40254;SDS011;25973;52.368;4.940;2023-06-22T06:39:43;25.65;;;15.43;;
40254;SDS011;25973;52.368;4.940;2023-06-22T06:42:09;30.23;;;15.18;;
40254;SDS011;25973;52.368;4.940;2023-06-22T06:44:36;27.55;;;15.40;;
40254;SDS011;25973;52.368;4.940;2023-06-22T06:47:02;28.05;;;16.92;;
40254;SDS011;25973;52.368;4.940;2023-06-22T06:49:29;23.60;;;14.45;;
40254;SDS011;25973;52.368;4.940;2023-06-22T06:51:54;25.23;;;15.27;;
40254;SDS011;25973;52.368;4.940;2023-06-22T06:54:21;28.30;;;15.18;;
40254;SDS011;25973;52.368;4.940;2023-06-22T06:56:46;26.48;;;16.83;;
40254;SDS011;25973;52.368;4.940;2023-06-22T06:59:13;29.52;;;15.35;;
40254;SDS011;25973;52.368;4.940;2023-06-22T07:01:40;30.02;;;16.60;;
40254;SDS011;25973;52.368;4.940;2023-06-22T07:04:06;39.75;;;15.55;;
40254;SDS011;25973;52.368;4.940;2023-06-22T07:06:32;27.67;;;15.98;;
40254;SDS011;25973;52.368;4.940;2023-06-22T07:08:58;27.58;;;14.32;;
40254;SDS011;25973;52.368;4.940;2023-06-22T07:11:24;24.10;;;14.10;;
40254;SDS011;25973;52.368;4.940;2023-06-22T07:13:50;23.02;;;13.20;;
40254;SDS011;25973;52.368;4.940;2023-06-22T07:16:16;23.92;;;13.77;;
40254;SDS011;25973;52.368;4.940;2023-06-22T07:18:41;26.80;;;13.02;;
40254;SDS011;25973;52.368;4.940;2023-06-22T07:21:07;21.98;;;12.27;;
40254;SDS011;25973;52.368;4.940;2023-06-22T07:23:32;19.70;;;11.98;;
40254;SDS011;25973;52.368;4.940;2023-06-22T07:25:58;16.67;;;11.23;;
40254;SDS011;25973;52.368;4.940;2023-06-22T07:28:27;22.13;;;12.82;;
40254;SDS011;25973;52.368;4.940;2023-06-22T07:30:52;22.58;;;10.93;;
40254;SDS011;25973;52.368;4.940;2023-06-22T07:33:18;24.30;;;11.13;;
40254;SDS011;25973;52.368;4.940;2023-06-22T07:35:44;20.52;;;10.98;;
40254;SDS011;25973;52.368;4.940;2023-06-22T07:38:12;15.85;;;9.57;;
40254;SDS011;25973;52.368;4.940;2023-06-22T07:40:37;19.33;;;10.43;;
40254;SDS011;25973;52.368;4.940;2023-06-22T07:43:03;17.20;;;9.65;;
40254;SDS011;25973;52.368;4.940;2023-06-22T07:45:29;17.88;;;10.13;;
40254;SDS011;25973;52.368;4.940;2023-06-22T07:47:54;16.48;;;9.73;;
40254;SDS011;25973;52.368;4.940;2023-06-22T07:50:20;19.10;;;10.23;;
40254;SDS011;25973;52.368;4.940;2023-06-22T07:52:46;21.00;;;11.32;;
40254;SDS011;25973;52.368;4.940;2023-06-22T07:55:13;21.23;;;10.45;;
40254;SDS011;25973;52.368;4.940;2023-06-22T07:57:38;15.80;;;9.40;;
40254;SDS011;25973;52.368;4.940;2023-06-22T08:00:04;16.25;;;9.10;;
40254;SDS011;25973;52.368;4.940;2023-06-22T08:02:40;17.40;;;9.15;;
40254;SDS011;25973;52.368;4.940;2023-06-22T08:05:08;13.98;;;9.02;;
40254;SDS011;25973;52.368;4.940;2023-06-22T08:07:37;16.08;;;8.60;;
40254;SDS011;25973;52.368;4.940;2023-06-22T08:10:08;11.95;;;7.65;;
40254;SDS011;25973;52.368;4.940;2023-06-22T08:12:36;17.67;;;7.60;;
40254;SDS011;25973;52.368;4.940;2023-06-22T08:15:01;11.05;;;7.22;;
40254;SDS011;25973;52.368;4.940;2023-06-22T08:17:27;14.55;;;7.35;;
40254;SDS011;25973;52.368;4.940;2023-06-22T08:19:53;15.55;;;7.60;;
40254;SDS011;25973;52.368;4.940;2023-06-22T08:22:19;12.75;;;7.97;;
40254;SDS011;25973;52.368;4.940;2023-06-22T08:24:44;14.95;;;7.55;;
40254;SDS011;25973;52.368;4.940;2023-06-22T08:27:10;13.50;;;7.88;;
40254;SDS011;25973;52.368;4.940;2023-06-22T08:29:40;15.85;;;7.97;;
40254;SDS011;25973;52.368;4.940;2023-06-22T08:32:08;14.00;;;8.73;;
40254;SDS011;25973;52.368;4.940;2023-06-22T08:34:34;16.73;;;9.25;;
40254;SDS011;25973;52.368;4.940;2023-06-22T08:37:00;13.25;;;8.38;;
40254;SDS011;25973;52.368;4.940;2023-06-22T08:39:26;17.85;;;9.13;;
40254;SDS011;25973;52.368;4.940;2023-06-22T08:41:52;18.90;;;9.40;;
40254;SDS011;25973;52.368;4.940;2023-06-22T08:44:18;15.88;;;8.60;;
40254;SDS011;25973;52.368;4.940;2023-06-22T08:46:44;22.80;;;10.05;;
40254;SDS011;25973;52.368;4.940;2023-06-22T08:49:10;16.48;;;9.35;;
40254;SDS011;25973;52.368;4.940;2023-06-22T08:51:35;12.60;;;7.78;;
40254;SDS011;25973;52.368;4.940;2023-06-22T08:54:01;15.07;;;8.43;;
40254;SDS011;25973;52.368;4.940;2023-06-22T08:56:27;17.55;;;9.23;;
40254;SDS011;25973;52.368;4.940;2023-06-22T08:58:52;20.02;;;9.50;;
40254;SDS011;25973;52.368;4.940;2023-06-22T09:01:18;16.42;;;9.60;;
40254;SDS011;25973;52.368;4.940;2023-06-22T09:03:44;14.73;;;8.95;;
40254;SDS011;25973;52.368;4.940;2023-06-22T09:06:18;14.88;;;9.38;;
40254;SDS011;25973;52.368;4.940;2023-06-22T09:08:44;17.20;;;9.25;;
40254;SDS011;25973;52.368;4.940;2023-06-22T09:11:11;16.77;;;9.45;;
40254;SDS011;25973;52.368;4.940;2023-06-22T09:13:36;21.00;;;12.18;;
40254;SDS011;25973;52.368;4.940;2023-06-22T09:16:02;16.85;;;9.80;;
40254;SDS011;25973;52.368;4.940;2023-06-22T09:18:28;15.55;;;10.43;;
40254;SDS011;25973;52.368;4.940;2023-06-22T09:20:53;18.10;;;11.30;;
40254;SDS011;25973;52.368;4.940;2023-06-22T09:23:19;16.83;;;10.77;;
40254;SDS011;25973;52.368;4.940;2023-06-22T09:25:44;20.35;;;12.18;;
40254;SDS011;25973;52.368;4.940;2023-06-22T09:28:12;31.00;;;11.98;;
40254;SDS011;25973;52.368;4.940;2023-06-22T09:30:37;20.50;;;11.23;;
40254;SDS011;25973;52.368;4.940;2023-06-22T09:33:03;22.20;;;12.52;;
40254;SDS011;25973;52.368;4.940;2023-06-22T09:35:28;21.08;;;11.60;;
40254;SDS011;25973;52.368;4.940;2023-06-22T09:37:54;18.67;;;12.13;;
40254;SDS011;25973;52.368;4.940;2023-06-22T09:40:19;19.77;;;11.63;;
40254;SDS011;25973;52.368;4.940;2023-06-22T09:42:45;17.60;;;11.52;;
40254;SDS011;25973;52.368;4.940;2023-06-22T09:45:11;18.88;;;10.80;;
40254;SDS011;25973;52.368;4.940;2023-06-22T09:47:36;20.73;;;12.35;;
40254;SDS011;25973;52.368;4.940;2023-06-22T09:50:02;22.20;;;11.80;;
40254;SDS011;25973;52.368;4.940;2023-06-22T09:52:28;17.63;;;11.05;;
40254;SDS011;25973;52.368;4.940;2023-06-22T09:54:54;19.38;;;12.07;;
40254;SDS011;25973;52.368;4.940;2023-06-22T09:57:19;18.95;;;11.73;;
40254;SDS011;25973;52.368;4.940;2023-06-22T09:59:45;17.60;;;10.32;;
40254;SDS011;25973;52.368;4.940;2023-06-22T10:02:10;23.13;;;11.73;;
40254;SDS011;25973;52.368;4.940;2023-06-22T10:04:36;20.00;;;10.25;;
40254;SDS011;25973;52.368;4.940;2023-06-22T10:07:02;18.65;;;10.95;;
40254;SDS011;25973;52.368;4.940;2023-06-22T10:09:28;15.90;;;10.57;;
40254;SDS011;25973;52.368;4.940;2023-06-22T10:11:53;16.00;;;10.02;;
40254;SDS011;25973;52.368;4.940;2023-06-22T10:14:19;18.20;;;10.60;;
40254;SDS011;25973;52.368;4.940;2023-06-22T10:16:45;14.98;;;10.15;;
40254;SDS011;25973;52.368;4.940;2023-06-22T10:19:10;16.85;;;10.20;;
40254;SDS011;25973;52.368;4.940;2023-06-22T10:21:36;18.27;;;10.25;;
40254;SDS011;25973;52.368;4.940;2023-06-22T10:24:01;16.08;;;10.20;;
40254;SDS011;25973;52.368;4.940;2023-06-22T10:26:31;15.98;;;9.07;;
40254;SDS011;25973;52.368;4.940;2023-06-22T10:28:58;15.32;;;9.40;;
40254;SDS011;25973;52.368;4.940;2023-06-22T10:31:24;14.95;;;9.07;;
40254;SDS011;25973;52.368;4.940;2023-06-22T10:33:49;14.73;;;9.23;;
40254;SDS011;25973;52.368;4.940;2023-06-22T10:36:15;19.80;;;10.32;;
40254;SDS011;25973;52.368;4.940;2023-06-22T10:38:41;17.90;;;10.30;;
40254;SDS011;25973;52.368;4.940;2023-06-22T10:41:06;19.13;;;9.80;;
40254;SDS011;25973;52.368;4.940;2023-06-22T10:43:32;20.10;;;9.18;;
40254;SDS011;25973;52.368;4.940;2023-06-22T10:45:57;15.38;;;9.80;;
40254;SDS011;25973;52.368;4.940;2023-06-22T10:48:23;15.85;;;9.40;;
40254;SDS011;25973;52.368;4.940;2023-06-22T10:50:51;19.35;;;10.50;;
40254;SDS011;25973;52.368;4.940;2023-06-22T10:53:18;17.40;;;9.70;;
40254;SDS011;25973;52.368;4.940;2023-06-22T10:55:44;12.07;;;8.68;;
40254;SDS011;25973;52.368;4.940;2023-06-22T10:58:09;19.67;;;10.55;;
40254;SDS011;25973;52.368;4.940;2023-06-22T11:00:35;15.68;;;9.60;;
40254;SDS011;25973;52.368;4.940;2023-06-22T11:03:00;16.35;;;10.35;;
40254;SDS011;25973;52.368;4.940;2023-06-22T11:05:26;18.90;;;8.50;;
40254;SDS011;25973;52.368;4.940;2023-06-22T11:07:51;17.17;;;9.18;;
40254;SDS011;25973;52.368;4.940;2023-06-22T11:10:17;18.63;;;10.70;;
40254;SDS011;25973;52.368;4.940;2023-06-22T11:12:42;17.13;;;10.13;;
40254;SDS011;25973;52.368;4.940;2023-06-22T11:15:08;16.10;;;9.27;;
40254;SDS011;25973;52.368;4.940;2023-06-22T11:17:34;18.42;;;9.70;;
40254;SDS011;25973;52.368;4.940;2023-06-22T11:20:00;18.27;;;9.20;;
40254;SDS011;25973;52.368;4.940;2023-06-22T11:22:26;17.15;;;10.07;;
40254;SDS011;25973;52.368;4.940;2023-06-22T11:24:52;17.40;;;10.80;;
40254;SDS011;25973;52.368;4.940;2023-06-22T11:27:17;18.15;;;10.40;;
40254;SDS011;25973;52.368;4.940;2023-06-22T11:29:43;16.33;;;9.73;;
40254;SDS011;25973;52.368;4.940;2023-06-22T11:32:08;17.77;;;9.50;;
40254;SDS011;25973;52.368;4.940;2023-06-22T11:34:34;17.02;;;9.95;;
40254;SDS011;25973;52.368;4.940;2023-06-22T11:37:00;19.88;;;9.90;;
40254;SDS011;25973;52.368;4.940;2023-06-22T11:39:26;16.10;;;9.00;;
40254;SDS011;25973;52.368;4.940;2023-06-22T11:41:51;16.33;;;9.43;;
40254;SDS011;25973;52.368;4.940;2023-06-22T11:44:17;17.50;;;9.98;;
40254;SDS011;25973;52.368;4.940;2023-06-22T11:46:43;15.45;;;8.88;;
40254;SDS011;25973;52.368;4.940;2023-06-22T11:49:08;15.07;;;9.25;;
40254;SDS011;25973;52.368;4.940;2023-06-22T11:51:34;13.80;;;8.68;;
40254;SDS011;25973;52.368;4.940;2023-06-22T11:54:00;18.33;;;9.48;;
40254;SDS011;25973;52.368;4.940;2023-06-22T11:56:25;13.38;;;9.10;;
40254;SDS011;25973;52.368;4.940;2023-06-22T11:58:52;15.07;;;9.25;;
40254;SDS011;25973;52.368;4.940;2023-06-22T12:01:19;15.10;;;9.27;;
40254;SDS011;25973;52.368;4.940;2023-06-22T12:03:44;14.60;;;9.10;;
40254;SDS011;25973;52.368;4.940;2023-06-22T12:06:10;15.95;;;9.18;;
40254;SDS011;25973;52.368;4.940;2023-06-22T12:08:36;13.93;;;8.43;;
40254;SDS011;25973;52.368;4.940;2023-06-22T12:11:02;13.85;;;7.32;;
40254;SDS011;25973;52.368;4.940;2023-06-22T12:13:28;11.93;;;8.38;;
40254;SDS011;25973;52.368;4.940;2023-06-22T12:15:53;14.68;;;7.47;;
40254;SDS011;25973;52.368;4.940;2023-06-22T12:18:19;18.75;;;8.55;;
40254;SDS011;25973;52.368;4.940;2023-06-22T12:20:46;16.65;;;7.57;;
40254;SDS011;25973;52.368;4.940;2023-06-22T12:23:12;13.93;;;7.30;;
40254;SDS011;25973;52.368;4.940;2023-06-22T12:25:37;13.52;;;7.45;;
40254;SDS011;25973;52.368;4.940;2023-06-22T12:28:03;13.15;;;7.20;;
40254;SDS011;25973;52.368;4.940;2023-06-22T12:30:29;15.23;;;6.20;;
40254;SDS011;25973;52.368;4.940;2023-06-22T12:32:55;13.15;;;7.43;;
40254;SDS011;25973;52.368;4.940;2023-06-22T12:35:21;11.73;;;6.72;;
40254;SDS011;25973;52.368;4.940;2023-06-22T12:37:46;14.57;;;6.72;;
40254;SDS011;25973;52.368;4.940;2023-06-22T12:40:12;15.60;;;7.03;;
40254;SDS011;25973;52.368;4.940;2023-06-22T12:42:38;13.18;;;7.20;;
40254;SDS011;25973;52.368;4.940;2023-06-22T12:45:03;13.40;;;6.53;;
40254;SDS011;25973;52.368;4.940;2023-06-22T12:47:30;10.70;;;6.78;;
40254;SDS011;25973;52.368;4.940;2023-06-22T12:49:55;15.07;;;8.20;;
40254;SDS011;25973;52.368;4.940;2023-06-22T12:52:21;11.55;;;6.63;;
40254;SDS011;25973;52.368;4.940;2023-06-22T12:54:47;11.25;;;6.75;;
40254;SDS011;25973;52.368;4.940;2023-06-22T12:57:13;9.52;;;5.85;;
40254;SDS011;25973;52.368;4.940;2023-06-22T12:59:39;10.80;;;5.82;;
40254;SDS011;25973;52.368;4.940;2023-06-22T13:02:05;8.00;;;6.25;;
40254;SDS011;25973;52.368;4.940;2023-06-22T13:04:31;11.93;;;6.80;;
40254;SDS011;25973;52.368;4.940;2023-06-22T13:06:56;10.32;;;7.10;;
40254;SDS011;25973;52.368;4.940;2023-06-22T13:09:22;9.80;;;6.05;;
40254;SDS011;25973;52.368;4.940;2023-06-22T13:11:47;8.85;;;5.25;;
40254;SDS011;25973;52.368;4.940;2023-06-22T13:14:13;13.00;;;5.57;;
40254;SDS011;25973;52.368;4.940;2023-06-22T13:16:41;10.00;;;5.18;;
40254;SDS011;25973;52.368;4.940;2023-06-22T13:19:06;10.60;;;5.80;;
40254;SDS011;25973;52.368;4.940;2023-06-22T13:21:32;11.30;;;5.53;;
40254;SDS011;25973;52.368;4.940;2023-06-22T13:23:59;10.73;;;4.95;;
40254;SDS011;25973;52.368;4.940;2023-06-22T13:26:25;11.68;;;4.88;;
40254;SDS011;25973;52.368;4.940;2023-06-22T13:28:50;9.07;;;5.68;;
40254;SDS011;25973;52.368;4.940;2023-06-22T13:31:16;10.45;;;4.95;;
40254;SDS011;25973;52.368;4.940;2023-06-22T13:33:41;8.70;;;4.25;;
40254;SDS011;25973;52.368;4.940;2023-06-22T13:36:07;10.10;;;4.25;;
40254;SDS011;25973;52.368;4.940;2023-06-22T13:41:03;8.85;;;4.45;;
40254;SDS011;25973;52.368;4.940;2023-06-22T13:43:29;7.45;;;4.47;;
40254;SDS011;25973;52.368;4.940;2023-06-22T13:45:54;9.85;;;4.85;;
40254;SDS011;25973;52.368;4.940;2023-06-22T13:48:20;10.82;;;5.05;;
40254;SDS011;25973;52.368;4.940;2023-06-22T13:50:45;7.97;;;4.10;;
40254;SDS011;25973;52.368;4.940;2023-06-22T13:53:11;9.63;;;4.53;;
40254;SDS011;25973;52.368;4.940;2023-06-22T13:55:36;7.88;;;4.85;;
40254;SDS011;25973;52.368;4.940;2023-06-22T13:58:02;9.70;;;4.35;;
40254;SDS011;25973;52.368;4.940;2023-06-22T14:00:28;11.77;;;4.25;;
40254;SDS011;25973;52.368;4.940;2023-06-22T14:02:53;12.45;;;4.25;;
40254;SDS011;25973;52.368;4.940;2023-06-22T14:05:19;8.40;;;4.15;;
40254;SDS011;25973;52.368;4.940;2023-06-22T14:07:45;7.45;;;3.92;;
40254;SDS011;25973;52.368;4.940;2023-06-22T14:10:11;8.95;;;4.22;;
40254;SDS011;25973;52.368;4.940;2023-06-22T14:12:36;7.38;;;3.50;;
40254;SDS011;25973;52.368;4.940;2023-06-22T14:15:02;6.60;;;3.92;;
40254;SDS011;25973;52.368;4.940;2023-06-22T14:17:28;9.88;;;5.10;;
40254;SDS011;25973;52.368;4.940;2023-06-22T14:19:54;8.15;;;3.50;;
40254;SDS011;25973;52.368;4.940;2023-06-22T14:22:20;8.25;;;4.75;;
40254;SDS011;25973;52.368;4.940;2023-06-22T14:24:47;9.73;;;4.53;;
40254;SDS011;25973;52.368;4.940;2023-06-22T14:27:12;14.98;;;4.97;;
40254;SDS011;25973;52.368;4.940;2023-06-22T14:29:38;10.05;;;5.13;;
40254;SDS011;25973;52.368;4.940;2023-06-22T14:32:04;9.25;;;4.28;;